Time;durP1;ratioP1;P1;durP2;ratioP2;P2;SDS_P1;SDS_P2;PMS_P1;PMS_P2;Temp;Humidity;BMP_temperature;BMP_pressure;BME280_temperature;BME280_humidity;BME280_pressure;Samples;Min_cycle;Max_cycle;Signal;HPM_P1;HPM_P2
2023/04/10 00:04:14;;;;;;;5.53;1.70;;;;;;;3.36;47.84;102203.38;10575511;28;20044;-77
2023/04/10 00:09:16;;;;;;;2.78;1.60;;;;;;;3.36;47.93;102206.09;10534246;28;20044;-77
2023/04/10 00:14:22;;;;;;;2.35;1.70;;;;;;;3.29;48.40;102204.13;10532185;28;20044;-76
2023/04/10 00:19:24;;;;;;;2.10;1.67;;;;;;;3.26;48.65;102212.66;10533658;28;20510;-78
2023/04/10 00:24:26;;;;;;;3.92;1.58;;;;;;;3.19;48.94;102198.22;10574801;28;20082;-78
2023/04/10 00:29:29;;;;;;;6.05;1.67;;;;;;;3.12;49.13;102202.72;10565277;28;20480;-77
2023/04/10 00:34:31;;;;;;;3.97;1.70;;;;;;;3.07;49.35;102194.31;10556181;28;20048;-77
2023/04/10 00:39:34;;;;;;;1.98;1.30;;;;;;;3.06;49.74;102192.66;10574477;28;20120;-76
2023/04/10 00:44:36;;;;;;;2.05;1.27;;;;;;;3.22;49.86;102184.25;10534777;28;20047;-78
2023/04/10 00:49:40;;;;;;;2.70;1.90;;;;;;;3.23;50.14;102193.22;10516713;28;20046;-78
2023/04/10 00:54:43;;;;;;;2.33;1.50;;;;;;;3.09;50.04;102184.13;10528164;28;20048;-79
2023/04/10 00:59:47;;;;;;;2.92;1.55;;;;;;;2.96;50.52;102197.56;10523952;28;20040;-78
2023/04/10 01:04:49;;;;;;;3.17;1.80;;;;;;;3.02;50.72;102189.50;10533143;28;20032;-78
2023/04/10 01:10:17;;;;;;;6.25;1.73;;;;;;;3.09;50.79;102186.00;10513274;28;20048;-77
2023/04/10 01:15:21;;;;;;;5.10;2.30;;;;;;;3.08;50.86;102193.28;10512599;28;20044;-78
2023/04/10 01:20:26;;;;;;;2.30;1.45;;;;;;;3.14;50.81;102195.25;10514223;28;20052;-76
2023/04/10 01:25:43;;;;;;;3.20;1.60;;;;;;;3.00;51.18;102201.56;10495109;28;20036;-77
2023/04/10 01:30:50;;;;;;;1.95;1.60;;;;;;;2.84;51.52;102193.66;10511792;28;20040;-78
2023/04/10 01:35:53;;;;;;;4.35;1.80;;;;;;;2.65;51.98;102201.41;10487096;28;20044;-78
2023/04/10 01:41:00;;;;;;;4.57;1.90;;;;;;;2.59;52.32;102202.13;10563600;28;20056;-76
2023/04/10 01:46:04;;;;;;;3.55;1.75;;;;;;;2.50;52.43;102206.00;10467571;28;20049;-76
2023/04/10 01:51:08;;;;;;;4.32;1.63;;;;;;;2.47;52.59;102198.25;10490155;28;20041;-76
2023/04/10 01:56:11;;;;;;;3.38;1.80;;;;;;;2.53;52.72;102205.63;10513689;28;20048;-78
2023/04/10 02:01:21;;;;;;;3.25;1.92;;;;;;;2.45;52.77;102199.47;10480204;28;20041;-78
2023/04/10 02:06:36;;;;;;;2.67;1.60;;;;;;;2.46;53.33;102196.56;10436010;28;20032;-78
2023/04/10 02:11:58;;;;;;;4.28;2.40;;;;;;;2.40;53.22;102190.03;10529800;28;20040;-78
2023/04/10 02:17:01;;;;;;;3.38;1.55;;;;;;;2.47;53.39;102197.41;10494278;28;20037;-77
2023/04/10 02:22:04;;;;;;;2.28;1.38;;;;;;;2.38;54.06;102199.38;10460665;28;20642;-77
2023/04/10 02:27:08;;;;;;;3.03;1.83;;;;;;;2.42;53.87;102201.50;10491537;28;20048;-77
2023/04/10 02:32:10;;;;;;;4.88;1.92;;;;;;;2.26;54.55;102199.03;10513612;28;20041;-78
2023/04/10 02:37:14;;;;;;;3.83;1.98;;;;;;;2.10;54.93;102189.25;10494302;28;20053;-77
2023/04/10 02:42:17;;;;;;;4.72;1.58;;;;;;;2.03;55.31;102190.16;10502758;28;20044;-76
2023/04/10 02:47:20;;;;;;;2.97;1.88;;;;;;;1.99;55.05;102200.53;10538074;28;20496;-77
2023/04/10 02:52:23;;;;;;;4.22;1.70;;;;;;;2.00;55.49;102204.91;10485440;28;20527;-76
2023/04/10 02:57:27;;;;;;;3.08;1.88;;;;;;;1.93;55.68;102208.56;10531578;28;20047;-78
2023/04/10 03:02:30;;;;;;;2.92;1.58;;;;;;;1.88;56.37;102200.13;10499573;28;20052;-77
2023/04/10 03:07:37;;;;;;;2.53;1.70;;;;;;;1.82;56.58;102193.59;10534486;28;20043;-78
2023/04/10 03:12:39;;;;;;;3.15;2.17;;;;;;;1.82;56.78;102193.59;10516963;28;20045;-76
2023/04/10 03:17:41;;;;;;;4.22;1.83;;;;;;;1.85;56.92;102204.06;10516448;28;20056;-78
2023/04/10 03:22:43;;;;;;;2.13;1.63;;;;;;;1.81;57.16;102197.34;10505540;28;20044;-78
2023/04/10 03:27:46;;;;;;;3.55;1.95;;;;;;;1.90;57.50;102204.31;10494013;28;20037;-77
2023/04/10 03:32:48;;;;;;;6.28;2.10;;;;;;;2.20;57.26;102196.22;10521729;28;20041;-78
2023/04/10 03:37:51;;;;;;;3.35;2.10;;;;;;;2.77;56.53;102198.16;10500692;28;20056;-78
2023/04/10 03:42:53;;;;;;;2.08;1.63;;;;;;;3.29;54.89;102193.28;10518962;28;20518;-78
2023/04/10 03:47:56;;;;;;;4.20;1.95;;;;;;;3.81;54.23;102196.59;10505593;28;20044;-76
2023/04/10 03:52:59;;;;;;;2.60;1.90;;;;;;;4.30;52.56;102195.66;10514934;28;20045;-77
2023/04/10 03:58:01;;;;;;;4.80;2.42;;;;;;;4.68;51.44;102187.84;10479754;28;20052;-77
2023/04/10 04:03:05;;;;;;;4.18;2.00;;;;;;;4.84;50.71;102187.50;10483996;28;20037;-77
2023/04/10 04:08:35;;;;;;;2.67;1.93;;;;;;;5.26;50.21;102188.22;10493608;28;20047;-77
2023/04/10 04:13:44;;;;;;;6.47;2.08;;;;;;;5.70;48.87;102182.94;10480533;28;21021;-77
2023/04/10 04:19:00;;;;;;;7.60;2.58;;;;;;;6.00;48.58;102187.97;10518637;28;20052;-78
2023/04/10 04:24:06;;;;;;;5.97;2.50;;;;;;;6.47;47.54;102194.97;10485006;28;20685;-77
2023/04/10 04:29:29;;;;;;;6.78;2.00;;;;;;;6.59;47.26;102203.28;10485357;28;20056;-77
2023/04/10 04:34:44;;;;;;;4.35;2.10;;;;;;;7.13;46.35;102200.09;10499386;28;20062;-76
2023/04/10 04:40:00;;;;;;;5.05;2.17;;;;;;;7.33;45.50;102199.94;10483163;28;20500;-78
2023/04/10 04:45:30;;;;;;;6.20;2.40;;;;;;;6.81;46.63;102199.22;10471305;28;20048;-78
2023/04/10 04:50:45;;;;;;;7.10;2.13;;;;;;;6.88;46.58;102191.00;10491287;28;20576;-78
2023/04/10 04:56:06;;;;;;;5.07;2.35;;;;;;;7.18;45.69;102199.41;10491223;28;20045;-77
2023/04/10 05:01:47;;;;;;;12.75;3.22;;;;;;;8.12;45.10;102192.91;10481249;28;20033;-77
2023/04/10 05:07:08;;;;;;;8.02;2.95;;;;;;;9.09;42.97;102191.06;10464400;28;20448;-76
2023/04/10 05:12:30;;;;;;;9.80;2.35;;;;;;;9.23;42.08;102195.28;10483067;28;20048;-78
2023/04/10 05:17:52;;;;;;;5.60;2.33;;;;;;;9.63;41.35;102189.16;10516254;28;20044;-78
2023/04/10 05:23:17;;;;;;;9.27;2.92;;;;;;;9.11;42.30;102190.84;10504570;28;20040;-77
2023/04/10 05:28:32;;;;;;;13.20;2.72;;;;;;;9.32;41.66;102190.28;10491982;28;20816;-77
2023/04/10 05:33:34;;;;;;;12.35;3.10;;;;;;;9.30;41.37;102185.06;10503230;28;20045;-77
2023/04/10 05:38:54;;;;;;;5.35;2.70;;;;;;;9.54;40.89;102185.91;10508061;28;20056;-75
2023/04/10 05:44:15;;;;;;;14.85;3.20;;;;;;;10.08;40.77;102194.88;10499208;28;20039;-76
2023/04/10 05:49:40;;;;;;;10.63;3.17;;;;;;;10.76;39.72;102187.81;10502353;28;20056;-76
2023/04/10 05:55:06;;;;;;;7.15;2.65;;;;;;;10.73;39.39;102188.31;10470343;28;20056;-77
2023/04/10 06:00:09;;;;;;;14.23;2.92;;;;;;;11.54;38.33;102186.22;10498717;28;20037;-77
2023/04/10 06:05:18;;;;;;;10.40;2.60;;;;;;;11.44;37.29;102187.72;10487192;28;20037;-77
2023/04/10 06:10:21;;;;;;;9.98;2.40;;;;;;;12.21;36.83;102199.94;10483883;28;20523;-76
2023/04/10 06:15:23;;;;;;;5.78;2.40;;;;;;;12.36;36.30;102200.16;10484281;28;20056;-75
2023/04/10 06:20:27;;;;;;;6.50;2.30;;;;;;;12.48;35.55;102203.59;10469033;28;20053;-77
2023/04/10 06:25:29;;;;;;;12.25;3.55;;;;;;;13.11;34.90;102213.16;10493367;28;20416;-77
2023/04/10 06:30:36;;;;;;;4.38;2.25;;;;;;;13.22;34.66;102205.88;10484824;28;20049;-76
2023/04/10 06:35:40;;;;;;;7.33;2.40;;;;;;;13.40;33.84;102199.97;10498030;28;20456;-76
2023/04/10 06:40:42;;;;;;;5.20;2.65;;;;;;;13.58;34.07;102209.78;10506731;28;20049;-77
2023/04/10 06:45:45;;;;;;;6.65;2.60;;;;;;;13.93;33.54;102209.22;10506358;28;20390;-77
2023/04/10 06:50:47;;;;;;;8.55;2.95;;;;;;;14.33;33.39;102202.28;10493327;28;20447;-77
2023/04/10 06:55:49;;;;;;;7.47;2.88;;;;;;;14.34;32.84;102195.66;10494850;28;20040;-76
2023/04/10 07:00:53;;;;;;;14.35;3.08;;;;;;;14.58;32.56;102190.53;10513955;28;20053;-78
2023/04/10 07:05:55;;;;;;;8.68;2.90;;;;;;;13.74;33.70;102194.19;10520766;28;20393;-77
2023/04/10 07:10:57;;;;;;;8.65;3.25;;;;;;;13.75;34.34;102188.41;10498528;28;20452;-77
2023/04/10 07:16:00;;;;;;;8.90;2.80;;;;;;;14.94;32.80;102191.50;10521572;28;20043;-78
2023/04/10 07:21:36;;;;;;;9.68;2.90;;;;;;;15.02;32.48;102190.97;10517879;28;20044;-77
2023/04/10 07:26:38;;;;;;;13.18;3.50;;;;;;;14.87;32.13;102191.75;10500105;28;20040;-77
2023/04/10 07:31:40;;;;;;;9.23;3.00;;;;;;;15.70;31.70;102188.84;10531855;28;20037;-77
2023/04/10 07:36:43;;;;;;;11.25;3.25;;;;;;;15.97;30.92;102194.91;10540415;28;20040;-77
2023/04/10 07:41:45;;;;;;;10.10;3.15;;;;;;;15.56;31.06;102198.75;10494956;28;20427;-77
2023/04/10 07:56:52;;;;;;;12.20;3.30;;;;;;;16.33;30.80;102196.75;10530525;28;20049;-78
2023/04/10 08:01:55;;;;;;;;;;;;;;;16.58;30.23;102197.47;10496382;28;20056;-83
2023/04/10 08:06:57;;;;;;;14.02;3.55;;;;;;;16.14;30.84;102199.28;10507211;28;19916;-79
2023/04/10 08:12:00;;;;;;;10.13;3.72;;;;;;;17.22;29.63;102190.22;10520435;28;20048;-79
2023/04/10 08:17:02;;;;;;;10.55;3.75;;;;;;;17.21;29.38;102188.56;10509254;28;20041;-80
2023/04/10 08:22:04;;;;;;;5.53;3.67;;;;;;;17.52;29.13;102177.22;10486371;28;20504;-79
2023/04/10 08:27:06;;;;;;;6.65;3.10;;;;;;;17.69;29.13;102181.25;10509426;28;20045;-80
2023/04/10 08:32:11;;;;;;;9.20;3.72;;;;;;;17.59;29.29;102173.00;10497094;28;20033;-80
2023/04/10 08:37:14;;;;;;;13.90;3.80;;;;;;;18.49;28.60;102174.28;10477471;28;20048;-80
2023/04/10 08:42:21;;;;;;;6.53;3.65;;;;;;;18.49;28.10;102165.94;10490592;28;20051;-83
2023/04/10 08:47:26;;;;;;;10.13;3.72;;;;;;;18.22;28.59;102170.19;10479914;28;20501;-81
2023/04/10 08:52:33;;;;;;;;;;;;;;;18.47;28.23;102155.13;10501839;28;20425;-83
2023/04/10 08:57:37;;;;;;;10.33;3.20;;;;;;;18.82;28.07;102158.59;10477211;28;19920;-80
2023/04/10 09:02:40;;;;;;;12.73;4.03;;;;;;;19.29;27.50;102157.59;10491885;28;20041;-80
2023/04/10 09:12:45;;;;;;;7.63;4.25;;;;;;;18.16;28.37;102142.72;10495153;28;20053;-81
2023/04/10 09:18:13;;;;;;;7.05;3.45;;;;;;;17.80;28.44;102139.53;10513852;28;20048;-80
2023/04/10 09:33:21;;;;;;;5.22;3.22;;;;;;;14.81;32.52;102133.97;10518276;28;20044;-81
2023/04/10 09:38:24;;;;;;;3.58;2.75;;;;;;;14.74;32.66;102125.94;10475144;28;20055;-80
2023/04/10 09:43:26;;;;;;;4.93;2.90;;;;;;;14.46;33.06;102125.31;10521800;28;20121;-83
2023/04/10 09:48:28;;;;;;;9.27;3.50;;;;;;;14.55;32.60;102125.59;10529544;28;20532;-84
2023/04/10 09:53:47;;;;;;;7.63;2.90;;;;;;;14.60;32.85;102125.66;10512569;28;20055;-79
2023/04/10 10:08:57;;;;;;;7.50;2.90;;;;;;;14.31;33.48;102110.59;10542138;28;20058;-82
2023/04/10 10:19:22;;;;;;;7.45;2.97;;;;;;;14.29;32.72;102099.81;10486793;28;20088;-82
2023/04/10 10:24:25;;;;;;;4.28;2.88;;;;;;;14.06;33.29;102100.28;10528703;28;20383;-81
2023/04/10 10:29:31;;;;;;;4.47;3.05;;;;;;;14.01;33.42;102105.75;10552818;28;20411;-81
2023/04/10 10:34:36;;;;;;;5.13;3.10;;;;;;;14.11;34.28;102097.53;10535783;28;20451;-82
2023/04/10 10:40:04;;;;;;;7.75;3.10;;;;;;;13.83;33.52;102093.25;10511260;28;20056;-83
2023/04/10 10:45:29;;;;;;;5.05;3.08;;;;;;;13.78;33.57;102091.28;10494963;28;20056;-81
2023/04/10 10:51:10;;;;;;;5.88;3.03;;;;;;;13.91;33.83;102089.16;10510715;28;20044;-81
2023/04/10 10:56:18;;;;;;;7.78;2.90;;;;;;;13.82;33.86;102073.09;10358516;28;20045;-80
2023/04/10 11:01:21;;;;;;;7.93;3.08;;;;;;;13.80;34.05;102080.00;10494457;28;20058;-84
2023/04/10 11:06:47;;;;;;;6.90;3.08;;;;;;;13.90;33.19;102062.66;10494587;28;20055;-80
2023/04/10 11:11:57;;;;;;;4.25;2.72;;;;;;;14.15;33.45;102063.59;10512314;28;20048;-81
2023/04/10 11:17:00;;;;;;;6.45;2.97;;;;;;;14.32;32.97;102062.53;10510818;28;20040;-83
2023/04/10 11:22:07;;;;;;;5.82;2.90;;;;;;;14.54;33.04;102043.00;10569707;28;20048;-82
2023/04/10 11:27:43;;;;;;;8.40;3.25;;;;;;;14.83;33.24;102043.34;10518545;28;20051;-82
2023/04/10 11:32:48;;;;;;;5.55;3.00;;;;;;;14.95;32.15;102041.97;10535232;28;20040;-81
2023/04/10 11:37:51;;;;;;;3.65;2.90;;;;;;;15.17;31.80;102030.63;10517140;28;20052;-80
2023/04/10 11:43:11;;;;;;;8.50;3.10;;;;;;;15.25;32.63;102030.03;10516948;28;20079;-83
2023/04/10 11:48:16;;;;;;;4.57;3.00;;;;;;;15.55;32.37;102018.09;10532851;28;20538;-83
2023/04/10 11:53:20;;;;;;;8.15;3.80;;;;;;;15.40;31.78;102018.13;10525875;28;20056;-82
2023/04/10 11:58:22;;;;;;;4.18;3.08;;;;;;;15.37;32.22;102010.38;10467909;28;20036;-87
2023/04/10 12:03:35;;;;;;;12.25;3.72;;;;;;;15.36;32.66;102009.56;10497178;28;20052;-83
2023/04/10 12:08:49;;;;;;;12.70;3.42;;;;;;;15.22;32.57;102007.66;10493415;28;20041;-83
2023/04/10 12:13:58;;;;;;;6.97;3.50;;;;;;;15.21;32.43;102000.47;10480851;28;20052;-85
2023/04/10 12:19:01;;;;;;;4.85;3.10;;;;;;;14.95;32.13;102003.28;10478939;28;20056;-85
2023/04/10 12:24:04;;;;;;;5.50;3.00;;;;;;;14.73;32.34;101986.94;10482070;28;20493;-84
2023/04/10 12:29:08;;;;;;;4.53;2.63;;;;;;;14.84;32.59;101985.03;10499049;28;20037;-81
2023/04/10 12:34:17;;;;;;;4.47;3.00;;;;;;;14.84;32.44;101973.13;10487296;28;20039;-84
2023/04/10 12:39:23;;;;;;;4.03;3.00;;;;;;;14.82;32.48;101975.34;10485954;28;20061;-82
2023/04/10 12:44:26;;;;;;;4.43;2.83;;;;;;;14.70;32.63;101962.63;10534262;28;20048;-90
2023/04/10 12:49:29;;;;;;;6.32;2.95;;;;;;;14.87;32.63;101951.28;10468125;28;20040;-83
2023/04/10 12:54:33;;;;;;;5.15;3.13;;;;;;;15.11;33.06;101951.56;10515082;28;20028;-82
2023/04/10 12:59:36;;;;;;;4.63;3.00;;;;;;;15.05;32.29;101947.13;10497814;28;20051;-87
2023/04/10 13:04:38;;;;;;;5.55;2.90;;;;;;;14.96;33.06;101946.06;10502585;28;20043;-81
2023/04/10 13:09:41;;;;;;;6.03;2.65;;;;;;;14.96;32.22;101937.75;10503641;28;20045;-84
2023/04/10 13:14:45;;;;;;;10.07;2.97;;;;;;;14.95;32.92;101941.63;10523452;28;20051;-81
2023/04/10 13:19:47;;;;;;;5.43;3.22;;;;;;;15.02;33.63;101931.09;10526480;28;20037;-82
2023/04/10 13:24:49;;;;;;;7.53;3.50;;;;;;;15.14;33.22;101926.09;10525274;28;20040;-83
2023/04/10 13:29:52;;;;;;;4.95;3.47;;;;;;;15.23;33.27;101929.94;10536488;28;20047;-84
2023/04/10 13:34:55;;;;;;;7.22;3.60;;;;;;;15.28;33.84;101931.88;10537390;28;20095;-83
2023/04/10 13:39:58;;;;;;;12.15;4.60;;;;;;;14.73;35.75;101928.91;10566518;28;20033;-80
2023/04/10 13:45:01;;;;;;;5.97;3.70;;;;;;;14.60;35.91;101935.03;10556469;28;20040;-83
2023/04/10 13:50:04;;;;;;;11.85;4.43;;;;;;;14.52;36.19;101924.50;10487780;28;20043;-83
2023/04/10 13:55:07;;;;;;;10.27;4.13;;;;;;;14.06;36.17;101929.16;10486178;28;20044;-82
2023/04/10 14:00:10;;;;;;;6.25;3.83;;;;;;;13.88;36.13;101922.19;10504871;28;20045;-84
2023/04/10 14:05:15;;;;;;;11.55;4.32;;;;;;;13.80;36.21;101922.72;10513276;28;20043;-82
2023/04/10 14:10:19;;;;;;;11.77;4.38;;;;;;;13.67;36.34;101915.78;10512303;28;20040;-83
2023/04/10 14:15:21;;;;;;;8.18;4.00;;;;;;;13.63;37.49;101913.84;10512112;28;20040;-82
2023/04/10 14:20:24;;;;;;;10.32;4.07;;;;;;;13.56;36.72;101914.09;10514200;28;20044;-82
2023/04/10 14:25:26;;;;;;;10.95;4.50;;;;;;;13.61;37.13;101910.53;10529124;28;20040;-80
2023/04/10 14:30:29;;;;;;;8.60;4.57;;;;;;;13.53;37.38;101912.69;10500846;28;20048;-81
2023/04/10 14:35:31;;;;;;;8.13;3.03;;;;;;;13.39;36.58;101914.31;10509638;28;20043;-83
2023/04/10 14:40:35;;;;;;;6.97;3.78;;;;;;;13.41;36.35;101903.00;10463890;28;20049;-82
2023/04/10 14:45:37;;;;;;;5.97;3.20;;;;;;;13.34;36.71;101906.00;10470037;28;20066;-84
2023/04/10 14:50:39;;;;;;;6.88;2.80;;;;;;;13.11;36.47;101909.16;10470385;28;20436;-81
2023/04/10 14:55:41;;;;;;;8.00;3.05;;;;;;;13.11;37.08;101909.16;10457319;28;20048;-82
2023/04/10 15:00:44;;;;;;;3.97;2.33;;;;;;;13.67;35.43;101899.22;10478045;28;20048;-84
2023/04/10 15:05:46;;;;;;;10.88;3.15;;;;;;;13.74;35.07;101910.03;10495134;28;20071;-85
2023/04/10 15:10:49;;;;;;;7.10;3.25;;;;;;;13.80;35.34;101909.75;10477639;28;20044;-81
2023/04/10 15:15:52;;;;;;;9.35;4.30;;;;;;;13.38;35.80;101901.63;10497610;28;20052;-81
2023/04/10 15:20:54;;;;;;;9.95;4.38;;;;;;;13.33;35.12;101907.09;10500947;28;20067;-82
2023/04/10 15:25:57;;;;;;;7.05;3.58;;;;;;;13.40;35.21;101899.41;10536805;28;20040;-81
2023/04/10 15:30:59;;;;;;;6.15;3.03;;;;;;;13.10;35.30;101890.97;10501178;28;20051;-85
2023/04/10 15:36:02;;;;;;;6.28;3.03;;;;;;;12.98;35.80;101888.41;10454633;28;20258;-82
2023/04/10 15:41:09;;;;;;;7.85;2.97;;;;;;;12.94;35.20;101888.13;10476308;28;20045;-84
2023/04/10 15:46:11;;;;;;;8.27;3.07;;;;;;;12.76;35.53;101879.47;10460399;28;20052;-81
2023/04/10 15:51:13;;;;;;;5.53;2.63;;;;;;;12.99;34.79;101870.78;10489666;28;20048;-81
2023/04/10 15:56:15;;;;;;;8.50;2.95;;;;;;;12.73;33.62;101863.47;10485465;28;20067;-81
2023/04/10 16:01:17;;;;;;;8.88;2.17;;;;;;;12.42;34.45;101862.44;10536844;28;20029;-80
2023/04/10 16:06:20;;;;;;;3.67;2.00;;;;;;;12.38;34.33;101867.63;10519190;28;20067;-83
2023/04/10 16:11:25;;;;;;;2.95;1.95;;;;;;;12.26;34.20;101870.56;10502039;28;20036;-82
2023/04/10 16:16:27;;;;;;;3.65;2.08;;;;;;;12.13;33.17;101867.41;10508496;28;20073;-81
2023/04/10 16:21:35;;;;;;;5.65;1.88;;;;;;;12.18;33.77;101865.56;10494801;28;20055;-84
2023/04/10 16:26:38;;;;;;;7.07;2.22;;;;;;;12.48;33.68;101864.94;10439212;28;20041;-84
2023/04/10 16:31:40;;;;;;;3.80;1.85;;;;;;;12.56;32.75;101863.63;10515204;28;20047;-81
2023/04/10 16:36:42;;;;;;;11.75;2.85;;;;;;;12.22;32.45;101860.34;10504604;28;20044;-86
2023/04/10 16:41:44;;;;;;;9.68;2.58;;;;;;;12.26;32.01;101856.78;10539548;28;20071;-83
2023/04/10 16:46:47;;;;;;;7.15;1.88;;;;;;;12.12;32.38;101855.56;10500258;28;20057;-82
2023/04/10 16:51:49;;;;;;;5.25;1.63;;;;;;;11.95;32.12;101854.84;10520566;28;20041;-86
2023/04/10 16:56:51;;;;;;;6.25;2.05;;;;;;;12.03;32.50;101841.47;10489215;28;20049;-87
2023/04/10 17:01:54;;;;;;;6.70;2.15;;;;;;;12.45;31.51;101839.88;10511378;28;20029;-84
2023/04/10 17:06:56;;;;;;;4.05;1.90;;;;;;;12.10;31.73;101849.50;10523013;28;20032;-84
2023/04/10 17:11:58;;;;;;;4.60;2.00;;;;;;;12.18;31.72;101840.78;10502100;28;20041;-84
2023/04/10 17:17:00;;;;;;;8.55;2.30;;;;;;;11.85;31.63;101846.53;10473267;28;20043;-85
2023/04/10 17:22:02;;;;;;;8.90;2.28;;;;;;;11.50;32.84;101842.28;10490792;28;20072;-83
2023/04/10 17:27:04;;;;;;;10.88;3.00;;;;;;;11.36;33.65;101841.84;10491842;28;20053;-87
2023/04/10 17:32:07;;;;;;;8.82;3.17;;;;;;;11.24;34.48;101832.91;10472099;28;20033;-89
2023/04/10 17:37:10;;;;;;;10.68;2.22;;;;;;;11.14;34.05;101832.78;10500311;28;20135;-87
2023/04/10 17:42:12;;;;;;;11.20;2.83;;;;;;;10.88;34.18;101840.69;10508291;28;20499;-89
2023/04/10 17:47:16;;;;;;;9.48;3.05;;;;;;;10.73;34.84;101834.16;10537690;28;20071;-85
2023/04/10 17:52:21;;;;;;;5.45;2.72;;;;;;;10.68;34.59;101834.91;10474874;28;20035;-87
2023/04/10 17:57:24;;;;;;;10.80;3.55;;;;;;;10.99;34.30;101841.66;10497450;28;20036;-85
2023/04/10 18:02:26;;;;;;;12.68;2.60;;;;;;;11.41;34.32;101835.56;10530908;28;20035;-85
2023/04/10 18:07:28;;;;;;;6.15;2.25;;;;;;;11.98;34.10;101822.19;10517211;28;20044;-89
2023/04/10 18:12:31;;;;;;;9.60;2.88;;;;;;;12.53;32.86;101812.69;10515189;28;20037;-85
2023/04/10 18:17:33;;;;;;;11.00;2.45;;;;;;;12.65;32.63;101817.97;10521468;28;20045;-83
2023/04/10 18:22:35;;;;;;;4.22;2.05;;;;;;;11.74;33.41;101818.88;10508970;28;20048;-84
2023/04/10 18:27:44;;;;;;;9.35;2.90;;;;;;;11.64;33.15;101816.06;10531201;28;20036;-88
2023/04/10 18:32:50;;;;;;;7.53;3.03;;;;;;;11.44;33.42;101804.81;10521996;28;20038;-89
2023/04/10 18:37:55;;;;;;;8.02;2.63;;;;;;;11.50;33.33;101806.56;10519484;28;20037;-83
2023/04/10 18:42:58;;;;;;;4.72;2.58;;;;;;;11.28;33.59;101809.34;10491184;28;20049;-85
2023/04/10 18:48:07;;;;;;;10.63;2.60;;;;;;;11.25;34.07;101800.75;10545415;28;20092;-88
2023/04/10 18:53:09;;;;;;;10.25;3.08;;;;;;;11.09;34.82;101795.06;10487075;28;20044;-88
2023/04/10 18:58:13;;;;;;;6.90;2.80;;;;;;;11.38;33.99;101806.69;10485593;28;20063;-89
2023/04/10 19:03:16;;;;;;;8.80;3.58;;;;;;;11.64;33.27;101799.56;10530151;28;20045;-83
2023/04/10 19:08:19;;;;;;;7.88;3.42;;;;;;;11.84;33.28;101787.94;10513331;28;20050;-86
2023/04/10 19:13:22;;;;;;;12.48;3.90;;;;;;;11.83;33.51;101785.47;10486026;28;20044;-85
2023/04/10 19:18:25;;;;;;;10.27;4.70;;;;;;;11.65;33.48;101794.88;10492624;28;20045;-85
2023/04/10 19:23:28;;;;;;;15.32;4.70;;;;;;;11.43;33.76;101787.50;10494529;28;20028;-93
2023/04/10 19:29:00;;;;;;;;;;;;;;;10.34;34.54;101775.69;10475333;28;20108;-85
2023/04/10 19:34:07;;;;;;;;;;;;;;;9.96;37.58;101778.09;10571249;28;19988;-89
2023/04/10 19:39:10;;;;;;;;;;;;;;;11.09;35.65;101764.88;10521203;28;19928;-88
2023/04/10 19:50:09;;;;;;;;;;;;;;;11.38;35.52;101764.63;10564100;28;19921;-92
2023/04/10 19:56:20;;;;;;;;;;;;;;;11.58;34.30;101770.34;10520185;28;20298;-90
2023/04/10 20:01:22;;;;;;;;;;;;;;;11.42;34.50;101757.53;10530963;28;19920;-87
2023/04/10 20:06:30;;;;;;;;;;;;;;;11.45;34.78;101759.75;10514249;28;19916;-85
2023/04/10 20:11:32;;;;;;;;;;;;;;;11.19;35.63;101758.66;10485958;28;19920;-85
2023/04/10 20:16:34;;;;;;;;;;;;;;;11.24;35.09;101747.72;10530409;28;19923;-88
2023/04/10 20:21:36;;;;;;;;;;;;;;;11.29;35.73;101750.53;10521160;28;19954;-86
2023/04/10 20:26:38;;;;;;;;;;;;;;;11.10;35.98;101743.72;10513145;28;19920;-86
2023/04/10 20:31:40;;;;;;;;;;;;;;;11.05;36.54;101741.75;10510296;28;19935;-81
2023/04/10 20:36:42;;;;;;;;;;;;;;;10.81;35.98;101734.88;10550767;28;19916;-85
2023/04/10 20:41:44;;;;;;;;;;;;;;;10.67;36.46;101723.44;10487658;28;19950;-84
2023/04/10 20:46:48;;;;;;;;;;;;;;;10.54;36.93;101726.56;10488645;28;19975;-81
2023/04/10 20:51:51;;;;;;;;;;;;;;;10.38;37.04;101727.44;10528334;28;20022;-81
2023/04/10 20:56:55;;;;;;;;;;;;;;;10.43;38.03;101722.88;10551738;28;19920;-81
2023/04/10 21:01:58;;;;;;;;;;;;;;;10.24;38.27;101725.09;10542092;28;19921;-81
2023/04/10 21:07:00;;;;;;;;;;;;;;;10.36;38.24;101721.38;10540857;28;19926;-84
2023/04/10 21:12:03;;;;;;;;;;;;;;;10.17;37.84;101721.63;10494770;28;20002;-84
2023/04/10 21:17:05;;;;;;;;;;;;;;;9.97;38.06;101716.69;10564963;28;19921;-82
2023/04/10 21:22:09;;;;;;;;;;;;;;;9.82;38.57;101708.22;10508393;28;19921;-82
2023/04/10 21:27:11;;;;;;;;;;;;;;;8.99;39.57;101707.03;10549621;28;20316;-84
2023/04/10 21:32:13;;;;;;;;;;;;;;;8.58;40.15;101699.94;10531018;28;20026;-83
2023/04/10 21:37:16;;;;;;;;;;;;;;;9.30;40.00;101700.22;10566798;28;19920;-83
2023/04/10 21:42:18;;;;;;;;;;;;;;;9.42;38.56;101693.84;10536111;28;19950;-83
2023/04/10 21:47:20;;;;;;;;;;;;;;;8.83;39.20;101698.75;10529073;28;19920;-82
2023/04/10 21:52:22;;;;;;;;;;;;;;;8.69;40.20;101692.78;10501975;28;20383;-82
2023/04/10 21:57:24;;;;;;;;;;;;;;;8.92;40.73;101686.38;10530946;28;20007;-83
2023/04/10 22:02:26;;;;;;;;;;;;;;;8.62;40.97;101687.41;10521177;28;19921;-83
2023/04/10 22:07:29;;;;;;;;;;;;;;;8.83;40.99;101683.16;10524607;28;19927;-82
2023/04/10 22:12:31;;;;;;;;;;;;;;;9.12;40.90;101684.00;10518251;28;19954;-82
2023/04/10 22:17:33;;;;;;;;;;;;;;;9.14;40.59;101676.38;10494210;28;19927;-81
2023/04/10 22:22:35;;;;;;;;;;;;;;;9.39;39.37;101677.91;10540575;28;19922;-84
2023/04/10 22:27:37;;;;;;;;;;;;;;;9.11;40.24;101671.41;10509433;28;19924;-82
2023/04/10 22:32:39;;;;;;;;;;;;;;;8.95;41.03;101669.44;10517641;28;20383;-84
2023/04/10 22:37:45;;;;;;;;;;;;;;;8.31;40.80;101680.44;10513167;28;19919;-81
2023/04/10 22:42:47;;;;;;;;;;;;;;;8.46;42.87;101669.84;10553962;28;20386;-84
2023/04/10 22:47:49;;;;;;;;;;;;;;;8.86;41.40;101670.94;10541402;28;19930;-83
2023/04/10 22:52:51;;;;;;;;;;;;;;;8.46;41.38;101669.84;10494971;28;19920;-82
2023/04/10 22:57:53;;;;;;;;;;;;;;;8.23;42.80;101669.06;10557195;28;19955;-80
2023/04/10 23:02:55;;;;;;;;;;;;;;;7.63;43.21;101659.19;10510284;28;19928;-80
2023/04/10 23:07:56;;;;;;;;;;;;;;;6.72;44.60;101654.94;10509659;28;19920;-82
2023/04/10 23:12:58;;;;;;;;;;;;;;;6.75;46.25;101654.47;10506448;28;19947;-83
2023/04/10 23:18:00;;;;;;;;;;;;;;;7.72;43.64;101652.34;10520916;28;19920;-82
2023/04/10 23:23:02;;;;;;;;;;;;;;;7.20;45.46;101643.13;10538599;28;19965;-83
2023/04/10 23:28:04;;;;;;;;;;;;;;;7.66;44.60;101631.44;10533569;28;19989;-82
2023/04/10 23:33:06;;;;;;;;;;;;;;;7.82;44.78;101632.63;10537445;28;19920;-81
2023/04/10 23:38:08;;;;;;;;;;;;;;;8.34;42.92;101638.16;10541769;28;20407;-82
2023/04/10 23:43:10;;;;;;;;;;;;;;;8.46;42.57;101633.47;10535316;28;19921;-84
2023/04/10 23:48:12;;;;;;;;;;;;;;;8.07;42.95;101630.44;10538192;28;19927;-83
2023/04/10 23:53:14;;;;;;;;;;;;;;;7.82;43.40;101629.88;10536191;28;19920;-82
2023/04/10 23:58:16;;;;;;;;;;;;;;;7.35;44.52;101623.56;10519319;28;19925;-81
